Time;durP1;ratioP1;P1;durP2;ratioP2;P2;SDS_P1;SDS_P2;PMS_P1;PMS_P2;Temp;Humidity;BMP_temperature;BMP_pressure;BME280_temperature;BME280_humidity;BME280_pressure;Samples;Min_cycle;Max_cycle;Signal;HPM_P1;HPM_P2
2022/11/25 00:01:10;;;;;;;112.80;53.60;;;;;;;0.11;89.47;98751.39;86756;1284;99489;-74
2022/11/25 00:03:12;;;;;;;107.60;55.50;;;;;;;0.11;89.48;98754.15;86822;1285;22525;-74
2022/11/25 00:05:12;;;;;;;115.10;57.20;;;;;;;0.10;89.51;98755.19;86588;1290;22700;-74
2022/11/25 00:07:13;;;;;;;120.70;59.60;;;;;;;0.10;89.67;98752.42;86725;1285;99162;-74
2022/11/25 00:09:14;;;;;;;123.20;61.30;;;;;;;0.10;89.67;98753.13;86690;1284;22539;-74
2022/11/25 00:11:16;;;;;;;125.90;59.90;;;;;;;0.10;89.61;98756.05;86761;1284;22502;-74
2022/11/25 00:13:17;;;;;;;128.90;62.70;;;;;;;0.10;89.65;98757.27;86657;1291;98771;-74
2022/11/25 00:15:18;;;;;;;128.00;63.10;;;;;;;0.11;89.67;98761.06;86703;1296;24768;-74
2022/11/25 00:17:19;;;;;;;139.30;65.90;;;;;;;0.11;89.63;98760.72;86553;1295;22527;-73
2022/11/25 00:19:20;;;;;;;150.30;67.60;;;;;;;0.12;89.62;98763.64;86650;1307;99779;-74
2022/11/25 00:21:24;;;;;;;145.40;65.50;;;;;;;0.13;89.78;98765.18;86695;1291;22605;-76
2022/11/25 00:23:25;;;;;;;140.80;66.10;;;;;;;0.14;89.76;98763.11;86753;1292;22616;-74
2022/11/25 00:25:26;;;;;;;143.70;66.70;;;;;;;0.13;89.83;98765.54;86686;1284;98931;-73
2022/11/25 00:27:27;;;;;;;142.90;62.70;;;;;;;0.16;89.76;98769.47;86638;1284;23055;-74
2022/11/25 00:29:28;;;;;;;132.70;64.00;;;;;;;0.15;89.68;98771.91;86572;1285;22726;-73
2022/11/25 00:31:33;;;;;;;138.10;63.70;;;;;;;0.17;89.71;98774.99;86597;1278;99782;-73
2022/11/25 00:33:36;;;;;;;136.70;62.00;;;;;;;0.15;89.73;98769.48;86594;1284;22827;-74
2022/11/25 00:35:36;;;;;;;131.60;63.50;;;;;;;0.18;89.66;98772.23;86706;1282;22595;-75
2022/11/25 00:37:37;;;;;;;127.40;61.10;;;;;;;0.17;89.61;98772.06;86526;1284;99719;-74
2022/11/25 00:39:38;;;;;;;132.40;61.40;;;;;;;0.19;89.75;98769.64;86735;1292;24299;-72
2022/11/25 00:46:20;;;;;;;122.40;59.10;;;;;;;0.19;89.81;98771.70;86504;1287;22418;-73
2022/11/25 00:48:21;;;;;;;118.90;58.60;;;;;;;0.20;89.74;98771.00;86521;1289;22511;-73
2022/11/25 00:50:22;;;;;;;131.00;57.90;;;;;;;0.21;89.45;98774.62;86543;1286;99211;-74
2022/11/25 00:52:26;;;;;;;121.60;57.80;;;;;;;0.22;89.66;98778.40;87088;1310;22476;-73
2022/11/25 00:54:27;;;;;;;120.20;57.80;;;;;;;0.23;89.69;98780.47;87631;1296;22470;-73
2022/11/25 00:56:29;;;;;;;124.20;56.30;;;;;;;0.20;89.65;98774.63;87468;1286;98004;-74
2022/11/25 00:58:30;;;;;;;116.20;59.30;;;;;;;0.24;89.74;98779.95;87090;1288;22559;-74
2022/11/25 01:00:31;;;;;;;118.60;58.30;;;;;;;0.26;89.79;98777.85;86616;1283;24398;-73
2022/11/25 01:02:32;;;;;;;125.70;57.40;;;;;;;0.27;89.62;98781.64;86439;1311;25945;-75
2022/11/25 01:04:33;;;;;;;129.90;59.80;;;;;;;0.27;89.77;98781.98;86730;1283;22520;-74
2022/11/25 01:06:37;;;;;;;121.70;57.40;;;;;;;0.27;89.77;98780.78;86425;1310;98284;-74
2022/11/25 01:08:38;;;;;;;120.70;57.70;;;;;;;0.28;89.59;98782.85;86564;1301;22507;-74
2022/11/25 01:10:39;;;;;;;122.80;60.10;;;;;;;0.27;89.71;98785.27;86633;1289;24267;-74
2022/11/25 01:12:40;;;;;;;128.40;59.30;;;;;;;0.29;89.54;98781.63;86661;1283;99832;-74
2022/11/25 01:14:41;;;;;;;129.30;59.50;;;;;;;0.30;89.80;98785.41;86728;1285;22654;-74
2022/11/25 01:16:42;;;;;;;130.50;61.50;;;;;;;0.30;89.75;98782.12;86695;1278;25258;-72
2022/11/25 01:18:43;;;;;;;123.30;59.70;;;;;;;0.31;89.68;98782.82;86766;1284;99785;-73
2022/11/25 01:20:44;;;;;;;117.90;59.90;;;;;;;0.31;89.62;98784.89;86696;1286;22467;-73
2022/11/25 01:22:46;;;;;;;131.70;61.20;;;;;;;0.32;89.58;98785.92;86527;1287;25452;-73
2022/11/25 01:24:47;;;;;;;126.10;59.50;;;;;;;0.32;89.69;98784.36;86497;1285;99307;-73
2022/11/25 01:26:48;;;;;;;115.60;58.20;;;;;;;0.33;89.75;98779.16;86602;1284;22562;-75
2022/11/25 01:28:55;;;;;;;132.90;62.00;;;;;;;0.33;89.75;98784.70;86732;1284;22779;-74
2022/11/25 01:31:07;;;;;;;130.00;60.70;;;;;;;0.34;89.83;98785.20;86500;1285;99764;-72
2022/11/25 01:33:07;;;;;;;129.70;61.20;;;;;;;0.34;89.63;98781.23;86599;1290;26527;-75
2022/11/25 01:35:09;;;;;;;133.60;58.30;;;;;;;0.33;89.70;98782.95;86685;1285;24359;-74
2022/11/25 01:37:10;;;;;;;109.80;55.80;;;;;;;0.33;89.79;98784.00;86415;1280;98927;-75
2022/11/25 01:39:17;;;;;;;127.40;59.20;;;;;;;0.33;89.78;98784.00;86544;1284;23226;-73
2022/11/25 01:41:18;;;;;;;138.20;62.30;;;;;;;0.33;89.79;98786.23;86690;1283;25617;-73
2022/11/25 01:43:20;;;;;;;139.80;59.70;;;;;;;0.34;89.56;98782.95;86380;1287;99600;-75
2022/11/25 01:45:20;;;;;;;;;;;;;;;0.34;89.66;98784.34;86538;1295;22962;-74
2022/11/25 01:47:23;;;;;;;128.30;58.20;;;;;;;0.33;89.88;98784.86;86825;1286;23976;-74
2022/11/25 01:49:48;;;;;;;119.00;57.50;;;;;;;0.35;89.70;98781.23;86545;1287;100284;-73
2022/11/25 01:52:18;;;;;;;119.60;56.50;;;;;;;0.35;89.69;98777.23;86712;1281;22829;-73
2022/11/25 01:54:23;;;;;;;127.70;58.80;;;;;;;0.36;89.56;98775.51;86609;1284;24469;-74
2022/11/25 01:56:28;;;;;;;122.20;62.00;;;;;;;0.36;89.62;98770.85;86519;1281;99462;-73
2022/11/25 01:58:34;;;;;;;134.70;60.80;;;;;;;0.35;89.77;98773.80;86699;1285;23005;-74
2022/11/25 02:00:36;;;;;;;128.50;58.90;;;;;;;0.36;89.73;98774.83;86721;1281;101992;-74
2022/11/25 02:02:38;;;;;;;126.30;59.20;;;;;;;0.36;89.60;98773.44;86693;1286;23027;-74
2022/11/25 02:04:42;;;;;;;129.10;58.50;;;;;;;0.35;89.58;98776.20;86525;1288;22481;-73
2022/11/25 02:06:51;;;;;;;130.90;59.90;;;;;;;0.32;89.53;98773.31;86619;1281;98806;-74
2022/11/25 02:08:57;;;;;;;139.80;62.30;;;;;;;0.28;89.59;98771.60;86651;1284;23227;-74
2022/11/25 02:11:00;;;;;;;141.20;60.50;;;;;;;0.28;89.70;98774.37;86332;1281;353369;-73
2022/11/25 02:13:01;;;;;;;132.30;60.60;;;;;;;0.30;89.62;98775.05;86623;1284;99468;-73
2022/11/25 02:15:03;;;;;;;138.30;61.30;;;;;;;0.31;89.61;98776.07;86536;1288;23722;-74
2022/11/25 02:17:05;;;;;;;145.10;62.60;;;;;;;0.31;89.57;98780.05;86804;1285;22482;-74
2022/11/25 02:19:16;;;;;;;150.30;60.90;;;;;;;0.31;89.70;98780.39;86585;1285;98396;-74
2022/11/25 02:21:25;;;;;;;132.60;58.30;;;;;;;0.33;89.59;98784.18;86548;1295;22574;-73
2022/11/25 02:23:35;;;;;;;142.60;63.40;;;;;;;0.34;89.53;98781.74;86453;1280;22477;-73
2022/11/25 02:25:39;;;;;;;137.30;63.00;;;;;;;0.34;89.77;98785.04;86551;1306;99167;-73
2022/11/25 02:27:43;;;;;;;128.80;62.50;;;;;;;0.34;89.82;98784.69;86572;1285;22766;-73
2022/11/25 02:29:45;;;;;;;138.40;63.40;;;;;;;0.35;89.80;98783.82;86493;1284;22675;-74
2022/11/25 02:31:48;;;;;;;;;;;;;;;0.34;89.77;98785.19;86484;1286;99276;-72
2022/11/25 02:33:49;;;;;;;139.20;59.90;;;;;;;0.35;89.92;98786.92;86609;1283;22481;-73
2022/11/25 02:35:50;;;;;;;;;;;;;;;0.35;89.79;98786.07;86611;1284;25188;-73
2022/11/25 02:37:54;;;;;;;139.90;62.60;;;;;;;0.35;89.86;98784.50;86504;1281;85606;-72
2022/11/25 02:39:55;;;;;;;152.70;64.70;;;;;;;0.35;89.76;98784.33;86584;1274;22642;-73
2022/11/25 02:41:58;;;;;;;167.70;68.10;;;;;;;0.36;89.89;98780.52;86693;1275;22483;-72
2022/11/25 02:44:00;;;;;;;155.50;68.60;;;;;;;0.36;89.78;98772.58;86633;1282;99279;-72
2022/11/25 02:46:05;;;;;;;144.50;66.50;;;;;;;0.36;89.75;98768.42;86628;1281;22505;-72
2022/11/25 02:48:06;;;;;;;161.70;67.80;;;;;;;0.35;89.66;98765.83;86597;1281;22542;-74
2022/11/25 02:50:08;;;;;;;;;;;;;;;0.35;89.79;98766.35;86384;1277;98148;-73
2022/11/25 02:52:09;;;;;;;165.20;64.70;;;;;;;0.34;89.56;98761.88;86477;1283;22497;-73
2022/11/25 02:54:12;;;;;;;147.40;66.30;;;;;;;0.33;89.67;98758.09;86433;1284;27817;-75
2022/11/25 02:56:17;;;;;;;150.00;62.20;;;;;;;0.33;89.78;98758.77;86568;1277;99616;-73
2022/11/25 02:58:19;;;;;;;183.70;71.00;;;;;;;0.31;89.67;98763.45;86700;1285;22616;-73
2022/11/25 03:00:20;;;;;;;167.00;69.20;;;;;;;0.31;89.78;98763.98;86636;1302;25532;-73
2022/11/25 03:02:21;;;;;;;180.20;71.80;;;;;;;0.31;89.61;98770.89;86613;1281;99819;-75
2022/11/25 03:04:22;;;;;;;172.10;68.30;;;;;;;0.31;89.75;98768.99;86652;1279;22615;-75
2022/11/25 03:06:23;;;;;;;193.40;75.30;;;;;;;0.30;89.59;98770.89;86655;1285;23608;-74
2022/11/25 03:08:24;;;;;;;207.20;75.50;;;;;;;0.31;89.72;98775.90;86388;1277;99157;-73
2022/11/25 03:10:25;;;;;;;179.90;75.00;;;;;;;0.30;89.74;98772.62;86560;1276;22526;-74
2022/11/25 03:12:28;;;;;;;178.50;73.90;;;;;;;0.32;89.98;98775.20;86526;1285;23278;-75
2022/11/25 03:14:30;;;;;;;197.00;76.20;;;;;;;0.32;89.66;98770.89;86387;1285;99225;-72
2022/11/25 03:16:31;;;;;;;183.90;77.00;;;;;;;0.32;89.59;98773.83;86685;1282;25258;-73
2022/11/25 03:18:32;;;;;;;181.60;72.60;;;;;;;0.33;89.80;98775.54;86620;1275;22466;-72
2022/11/25 03:20:35;;;;;;;204.30;72.20;;;;;;;0.33;89.77;98773.81;86460;1278;26864;-74
2022/11/25 03:22:36;;;;;;;229.40;79.00;;;;;;;0.34;89.81;98783.30;86559;1275;26497;-73
2022/11/25 03:24:37;;;;;;;213.00;80.40;;;;;;;0.34;89.68;98785.20;86391;1285;99499;-73
2022/11/25 03:26:41;;;;;;;190.10;79.20;;;;;;;0.35;89.91;98786.06;86608;1282;24362;-72
2022/11/25 03:28:42;;;;;;;197.50;77.20;;;;;;;0.37;89.69;98790.19;86487;1285;25869;-72
2022/11/25 03:30:42;;;;;;;178.00;74.10;;;;;;;0.36;89.81;98788.30;86613;1288;99724;-72
2022/11/25 03:32:44;;;;;;;178.60;76.90;;;;;;;0.36;89.67;98787.08;86576;1277;24250;-71
2022/11/25 03:34:46;;;;;;;178.10;70.90;;;;;;;0.36;89.72;98791.92;86450;1281;24296;-72
2022/11/25 03:36:47;;;;;;;170.80;72.70;;;;;;;0.36;89.67;98791.07;86442;1283;98352;-72
2022/11/25 03:38:48;;;;;;;164.10;70.20;;;;;;;0.37;89.83;98792.78;86339;1281;22493;-72
2022/11/25 03:40:49;;;;;;;171.00;69.00;;;;;;;0.37;89.67;98795.71;86287;1280;25392;-73
2022/11/25 03:42:50;;;;;;;182.20;72.90;;;;;;;0.38;89.84;98796.91;86203;1288;99010;-73
2022/11/25 03:44:51;;;;;;;201.60;72.40;;;;;;;0.37;89.70;98798.48;86432;1280;23198;-72
2022/11/25 03:46:52;;;;;;;177.80;74.10;;;;;;;0.37;89.91;98798.64;86577;1276;22500;-73
2022/11/25 03:48:53;;;;;;;206.80;72.50;;;;;;;0.38;89.91;98797.79;86377;1278;98864;-72
2022/11/25 03:50:54;;;;;;;184.10;71.40;;;;;;;0.39;89.75;98799.34;86495;1277;22504;-73
2022/11/25 03:52:55;;;;;;;254.10;73.70;;;;;;;0.40;89.74;98800.02;86450;1284;24294;-72
2022/11/25 03:54:56;;;;;;;202.40;72.90;;;;;;;0.40;90.03;98802.08;86158;1287;99311;-73
2022/11/25 03:56:57;;;;;;;212.70;72.60;;;;;;;0.41;89.89;98801.89;86473;1283;22605;-73
2022/11/25 03:58:58;;;;;;;212.80;72.80;;;;;;;0.41;89.68;98802.05;86464;1284;22674;-74
2022/11/25 04:01:00;;;;;;;208.00;75.00;;;;;;;0.42;89.80;98806.39;86521;1284;100778;-72
2022/11/25 04:03:01;;;;;;;189.60;69.30;;;;;;;0.42;89.72;98807.59;86673;1307;24593;-74
2022/11/25 04:05:04;;;;;;;179.50;69.20;;;;;;;0.42;90.02;98807.24;86544;1277;22530;-72
2022/11/25 04:07:05;;;;;;;198.50;69.60;;;;;;;0.42;89.95;98804.83;86329;1280;98923;-73
2022/11/25 04:09:07;;;;;;;201.10;70.50;;;;;;;0.42;89.75;98806.04;86319;1284;22518;-73
2022/11/25 04:11:08;;;;;;;174.60;69.40;;;;;;;0.41;89.69;98806.20;86369;1276;22482;-73
2022/11/25 04:13:10;;;;;;;177.40;68.50;;;;;;;0.41;89.70;98805.86;86302;1283;99353;-73
2022/11/25 04:15:12;;;;;;;188.90;69.30;;;;;;;0.41;89.92;98806.55;86322;1283;22608;-72
2022/11/25 04:17:13;;;;;;;181.20;69.70;;;;;;;0.41;89.83;98804.67;86560;1283;22472;-72
2022/11/25 04:19:14;;;;;;;166.00;68.10;;;;;;;0.42;89.78;98809.84;86279;1284;99345;-73
2022/11/25 04:21:15;;;;;;;184.00;71.00;;;;;;;0.42;89.79;98809.66;86466;1307;24405;-72
2022/11/25 04:23:16;;;;;;;;;;;;;;;0.42;89.90;98812.25;86404;1283;23419;-72
2022/11/25 04:25:17;;;;;;;176.30;68.80;;;;;;;0.43;89.86;98812.94;86300;1277;83835;-72
2022/11/25 04:27:18;;;;;;;186.80;71.30;;;;;;;0.44;89.94;98813.96;86416;1283;22558;-72
2022/11/25 04:29:21;;;;;;;203.30;72.50;;;;;;;0.44;89.91;98817.25;86237;1286;22586;-72
2022/11/25 04:31:23;;;;;;;181.70;73.70;;;;;;;0.45;89.84;98821.04;86351;1283;99204;-72
2022/11/25 04:33:24;;;;;;;199.00;75.80;;;;;;;0.46;89.86;98820.86;86498;1281;22516;-72
2022/11/25 04:35:25;;;;;;;193.30;74.60;;;;;;;0.47;89.83;98819.46;86348;1279;24268;-71
2022/11/25 04:37:26;;;;;;;196.60;74.50;;;;;;;0.49;89.85;98817.02;86283;1286;99347;-73
2022/11/25 04:39:29;;;;;;;208.80;79.40;;;;;;;0.49;89.95;98823.25;86356;1283;22517;-75
2022/11/25 04:41:30;;;;;;;205.60;74.70;;;;;;;0.50;89.94;98824.11;86357;1277;23708;-72
2022/11/25 04:43:31;;;;;;;195.70;78.80;;;;;;;0.51;89.89;98822.38;86360;1284;99293;-72
2022/11/25 04:45:32;;;;;;;206.20;76.90;;;;;;;0.52;90.05;98828.23;86254;1283;22496;-72
2022/11/25 04:47:34;;;;;;;193.00;77.10;;;;;;;0.52;89.95;98827.37;86376;1277;25294;-73
2022/11/25 04:49:35;;;;;;;;;;;;;;;0.53;89.83;98826.15;86235;1293;98122;-72
2022/11/25 04:51:36;;;;;;;188.10;74.30;;;;;;;0.52;89.80;98825.30;86445;1291;22467;-72
2022/11/25 04:53:37;;;;;;;183.80;78.90;;;;;;;0.52;89.86;98826.86;86309;1277;25244;-72
2022/11/25 04:55:38;;;;;;;198.10;78.20;;;;;;;0.52;90.05;98825.98;86293;1280;99374;-73
2022/11/25 04:57:40;;;;;;;280.60;77.10;;;;;;;0.53;90.18;98834.80;86138;1279;23628;-71
2022/11/25 04:59:42;;;;;;;250.50;74.90;;;;;;;0.54;89.96;98832.02;86424;1277;22583;-72
2022/11/25 05:01:43;;;;;;;239.70;75.70;;;;;;;0.55;89.89;98834.44;86179;1284;99203;-72
2022/11/25 05:03:44;;;;;;;197.00;77.00;;;;;;;0.55;89.98;98837.55;86301;1292;25552;-72
2022/11/25 05:05:45;;;;;;;221.70;75.90;;;;;;;0.56;89.87;98842.20;86316;1308;22493;-71
2022/11/25 05:07:46;;;;;;;;;;;;;;;0.57;90.01;98838.73;86204;1277;99538;-72
2022/11/25 05:09:48;;;;;;;216.00;71.80;;;;;;;0.57;89.91;98842.54;86423;1276;24256;-72
2022/11/25 05:11:49;;;;;;;206.30;71.60;;;;;;;0.57;89.78;98845.30;86430;1283;22426;-72
2022/11/25 05:13:49;;;;;;;204.90;71.90;;;;;;;0.57;89.81;98845.98;86322;1283;99256;-71
2022/11/25 05:15:51;;;;;;;174.70;70.60;;;;;;;0.56;89.90;98845.83;86477;1277;23867;-73
2022/11/25 05:17:52;;;;;;;168.10;66.60;;;;;;;0.57;90.18;98852.56;86419;1285;22906;-73
2022/11/25 05:19:53;;;;;;;180.80;74.50;;;;;;;0.57;89.88;98852.04;86355;1283;99473;-73
2022/11/25 05:21:54;;;;;;;237.70;76.50;;;;;;;0.58;90.05;98854.98;86365;1284;24264;-73
2022/11/25 05:23:55;;;;;;;;;;;;;;;0.59;89.67;98856.70;86510;1280;23817;-73
2022/11/25 05:26:03;;;;;;;199.50;71.40;;;;;;;0.58;90.00;98854.63;86378;1290;85406;-72
2022/11/25 05:28:04;;;;;;;198.60;73.60;;;;;;;0.58;89.99;98857.40;86366;1279;24352;-73
2022/11/25 05:30:06;;;;;;;201.80;73.50;;;;;;;0.59;89.96;98857.05;86474;1307;26518;-73
2022/11/25 05:32:07;;;;;;;212.80;76.60;;;;;;;0.58;90.14;98856.36;86513;1294;100980;-72
2022/11/25 05:34:09;;;;;;;240.60;82.10;;;;;;;0.59;89.87;98860.85;86651;1279;22529;-77
2022/11/25 05:36:10;;;;;;;244.20;79.20;;;;;;;0.59;89.86;98860.66;87005;1297;22614;-73
2022/11/25 05:38:11;;;;;;;218.50;79.10;;;;;;;0.61;89.79;98864.45;86698;1291;100126;-75
2022/11/25 05:40:13;;;;;;;272.30;78.20;;;;;;;0.62;89.88;98862.89;86653;1293;25262;-74
2022/11/25 05:42:14;;;;;;;;;;;;;;;0.62;90.08;98867.20;86663;1308;22421;-73
2022/11/25 05:44:15;;;;;;;193.60;78.80;;;;;;;0.60;89.96;98867.91;86592;1283;85256;-73
2022/11/25 05:46:17;;;;;;;228.10;79.80;;;;;;;0.58;89.89;98869.67;86622;1285;22475;-72
2022/11/25 05:48:17;;;;;;;;;;;;;;;0.59;89.85;98869.84;86636;1293;23056;-71
2022/11/25 05:50:18;;;;;;;218.60;82.60;;;;;;;0.59;89.94;98875.72;86577;1294;85691;-73
2022/11/25 05:52:19;;;;;;;241.50;84.50;;;;;;;0.59;90.10;98880.71;86569;1308;22451;-72
2022/11/25 05:54:20;;;;;;;254.60;81.90;;;;;;;0.60;89.94;98881.41;86776;1306;25831;-72
2022/11/25 05:56:22;;;;;;;242.00;83.40;;;;;;;0.60;89.96;98886.23;86715;1284;98064;-71
2022/11/25 05:58:23;;;;;;;234.80;79.90;;;;;;;0.61;89.88;98889.86;86910;1284;22462;-72
2022/11/25 06:00:24;;;;;;;;;;;;;;;0.61;89.98;98893.16;88143;1286;22597;-74
2022/11/25 06:02:25;;;;;;;197.30;78.20;;;;;;;0.61;89.86;98890.90;88246;1308;83810;-75
2022/11/25 06:04:26;;;;;;;210.80;81.00;;;;;;;0.62;89.86;98889.17;88197;1308;22438;-75
2022/11/25 06:06:30;;;;;;;198.90;78.60;;;;;;;0.63;90.23;98892.80;88363;1291;22532;-75
2022/11/25 06:08:32;;;;;;;185.30;79.50;;;;;;;0.64;90.05;98894.34;87897;1300;97944;-73
2022/11/25 06:10:33;;;;;;;187.60;80.70;;;;;;;0.66;90.15;98899.33;87298;1308;22564;-77
2022/11/25 06:12:35;;;;;;;192.60;80.70;;;;;;;0.67;89.92;98899.33;87292;1301;98180;-75
2022/11/25 06:14:36;;;;;;;190.70;79.70;;;;;;;0.68;90.06;98900.02;87654;1287;22506;-74
2022/11/25 06:16:37;;;;;;;187.10;80.60;;;;;;;0.69;89.86;98902.24;88074;1307;22468;-75
2022/11/25 06:18:38;;;;;;;199.40;85.00;;;;;;;0.71;90.22;98904.83;88053;1281;98208;-75
2022/11/25 06:20:39;;;;;;;;;;;;;;;0.72;89.97;98907.24;88066;1308;22555;-76
2022/11/25 06:22:40;;;;;;;182.60;74.60;;;;;;;0.71;89.84;98907.59;88043;1276;22606;-74
2022/11/25 06:24:42;;;;;;;209.90;79.60;;;;;;;0.72;90.04;98911.55;88018;1300;100454;-75
2022/11/25 06:26:43;;;;;;;191.90;82.10;;;;;;;0.73;89.95;98908.60;87262;1308;24250;-73
2022/11/25 06:28:45;;;;;;;209.30;85.00;;;;;;;0.74;90.01;98905.48;86878;1294;22491;-73
2022/11/25 06:30:46;;;;;;;201.40;85.90;;;;;;;0.75;89.96;98908.42;86635;1284;98247;-73
2022/11/25 06:32:47;;;;;;;210.10;84.00;;;;;;;0.76;90.21;98909.63;86690;1287;22661;-72
2022/11/25 06:34:48;;;;;;;;;;;;;;;0.77;89.99;98912.20;86790;1309;22521;-74
2022/11/25 06:36:49;;;;;;;206.10;80.40;;;;;;;0.77;89.85;98911.34;86804;1283;84254;-73
2022/11/25 06:38:52;;;;;;;189.00;80.80;;;;;;;0.78;90.01;98912.70;86598;1284;22528;-72
2022/11/25 06:40:58;;;;;;;252.80;83.50;;;;;;;0.79;90.37;98914.08;86787;1305;22526;-71
2022/11/25 06:42:59;;;;;;;190.80;79.00;;;;;;;0.81;90.23;98914.05;86694;1285;98256;-71
2022/11/25 06:45:00;;;;;;;193.00;76.90;;;;;;;0.81;90.05;98914.58;86697;1277;22909;-71
2022/11/25 06:47:01;;;;;;;218.60;82.40;;;;;;;0.82;90.30;98921.30;86612;1277;24213;-71
2022/11/25 06:49:02;;;;;;;274.40;80.90;;;;;;;0.82;90.12;98921.14;86520;1280;98057;-72
2022/11/25 06:51:06;;;;;;;263.00;83.60;;;;;;;0.84;90.28;98921.65;86711;1283;25384;-72
2022/11/25 06:53:07;;;;;;;231.70;84.30;;;;;;;0.85;90.16;98920.77;86372;1279;22618;-71
2022/11/25 06:55:08;;;;;;;201.70;81.20;;;;;;;0.87;90.18;98921.80;86417;1284;99228;-74
2022/11/25 06:57:11;;;;;;;214.90;81.60;;;;;;;0.88;90.07;98922.47;86410;1277;22635;-72
2022/11/25 06:59:12;;;;;;;261.90;84.90;;;;;;;0.89;90.30;98922.46;86407;1293;22525;-72
2022/11/25 07:01:19;;;;;;;206.30;82.50;;;;;;;0.90;90.45;98921.42;86409;1277;98169;-72
2022/11/25 07:03:20;;;;;;;241.30;81.10;;;;;;;0.92;90.33;98925.73;86252;1279;22587;-72
2022/11/25 07:05:21;;;;;;;221.90;81.00;;;;;;;0.92;90.51;98919.66;86223;1284;22534;-72
2022/11/25 07:07:22;;;;;;;244.90;80.50;;;;;;;0.93;90.15;98921.39;86276;1283;99375;-72
2022/11/25 07:09:23;;;;;;;216.60;83.00;;;;;;;0.95;90.12;98921.72;86338;1283;22481;-72
2022/11/25 07:11:33;;;;;;;223.30;86.60;;;;;;;0.96;90.36;98921.02;86259;1279;26598;-72
2022/11/25 07:13:34;;;;;;;194.90;79.10;;;;;;;0.97;90.33;98917.89;86385;1284;98606;-72
2022/11/25 07:15:35;;;;;;;211.00;81.70;;;;;;;0.99;90.39;98918.55;86223;1276;22577;-73
2022/11/25 07:17:35;;;;;;;247.10;90.40;;;;;;;1.00;90.06;98919.76;86253;1286;26528;-72
2022/11/25 07:19:37;;;;;;;246.00;81.90;;;;;;;1.02;90.31;98925.27;86179;1277;100320;-74
2022/11/25 07:21:38;;;;;;;210.20;82.80;;;;;;;1.04;90.06;98926.64;86219;1284;22725;-74
2022/11/25 07:23:39;;;;;;;;;;;;;;;1.05;90.38;98928.17;86349;1275;25192;-74
2022/11/25 07:25:40;;;;;;;;;;;;;;;1.06;90.42;98931.80;86200;1283;85137;-74
2022/11/25 07:27:41;;;;;;;207.10;76.40;;;;;;;1.06;90.17;98927.14;86247;1283;24399;-73
2022/11/25 07:29:42;;;;;;;204.20;78.10;;;;;;;1.08;90.24;98929.55;86371;1283;22491;-72
2022/11/25 07:31:44;;;;;;;177.50;76.60;;;;;;;1.03;90.29;98920.07;86435;1283;99272;-73
2022/11/25 07:33:46;;;;;;;170.90;78.60;;;;;;;1.10;90.26;98930.91;86469;1274;22499;-73
2022/11/25 07:35:47;;;;;;;202.10;79.10;;;;;;;1.11;90.45;98934.52;86351;1276;26681;-74
2022/11/25 07:37:48;;;;;;;214.30;82.60;;;;;;;1.12;90.21;98935.90;86192;1284;99256;-73
2022/11/25 07:39:50;;;;;;;273.50;77.70;;;;;;;1.14;90.53;98938.63;86301;1277;22612;-73
2022/11/25 07:41:54;;;;;;;195.20;80.50;;;;;;;1.16;90.31;98942.77;86263;1279;22845;-73
2022/11/25 07:43:58;;;;;;;189.20;85.50;;;;;;;1.17;90.51;98939.98;86217;1284;99669;-73
2022/11/25 07:46:16;;;;;;;180.30;84.50;;;;;;;1.17;90.13;98944.83;86542;1284;22474;-72
2022/11/25 07:48:17;;;;;;;179.60;85.90;;;;;;;1.19;90.25;98944.82;86175;1284;22596;-73
2022/11/25 07:50:19;;;;;;;180.60;80.90;;;;;;;1.22;90.26;98947.39;86122;1283;99148;-73
2022/11/25 07:52:20;;;;;;;193.10;81.60;;;;;;;1.23;90.51;98947.38;86489;1277;24254;-73
2022/11/25 07:54:22;;;;;;;313.90;84.60;;;;;;;1.25;90.32;98951.88;86267;1285;22480;-72
2022/11/25 07:56:24;;;;;;;289.50;86.50;;;;;;;1.26;90.32;98953.23;86081;1280;99156;-73
2022/11/25 07:58:25;;;;;;;200.70;88.20;;;;;;;1.29;90.19;98959.78;86163;1279;22556;-73
2022/11/25 08:00:26;;;;;;;205.30;85.50;;;;;;;1.30;90.33;98960.11;86234;1277;22481;-72
2022/11/25 08:02:26;;;;;;;187.80;88.10;;;;;;;1.31;90.16;98963.04;86133;1284;100025;-73
2022/11/25 08:04:27;;;;;;;197.00;86.10;;;;;;;1.30;90.24;98969.46;86164;1283;22944;-72
2022/11/25 08:06:29;;;;;;;182.80;83.90;;;;;;;1.30;90.20;98969.29;86131;1275;24294;-73
2022/11/25 08:08:30;;;;;;;190.00;86.20;;;;;;;1.29;90.20;98971.36;85970;1276;99030;-72
2022/11/25 08:10:31;;;;;;;225.00;88.00;;;;;;;1.28;90.15;98971.20;86454;1281;22718;-73
2022/11/25 08:12:32;;;;;;;235.00;92.30;;;;;;;1.28;90.23;98972.60;86370;1277;22496;-72
2022/11/25 08:14:34;;;;;;;235.40;95.90;;;;;;;1.30;90.09;98975.70;86157;1278;98958;-71
2022/11/25 08:16:35;;;;;;;294.20;89.60;;;;;;;1.32;90.33;98976.19;86371;1283;22499;-72
2022/11/25 08:18:36;;;;;;;243.10;90.60;;;;;;;1.33;90.42;98977.20;86317;1277;98308;-71
2022/11/25 08:20:37;;;;;;;226.70;93.30;;;;;;;1.35;90.37;98975.81;86353;1277;22501;-72
2022/11/25 08:22:38;;;;;;;223.20;93.40;;;;;;;1.35;89.92;98975.45;86314;1285;22526;-73
2022/11/25 08:24:39;;;;;;;223.90;94.80;;;;;;;1.36;90.21;98975.29;86194;1278;99322;-71
2022/11/25 08:26:41;;;;;;;244.10;101.70;;;;;;;1.38;90.09;98976.64;86590;1276;25371;-72
2022/11/25 08:28:42;;;;;;;242.70;96.90;;;;;;;1.39;90.64;98981.99;86286;1284;25289;-72
2022/11/25 08:30:43;;;;;;;249.80;100.90;;;;;;;1.40;90.45;98982.84;86369;1277;98232;-71
2022/11/25 08:32:44;;;;;;;246.30;98.80;;;;;;;1.42;90.08;98987.33;86379;1281;22516;-72
2022/11/25 08:34:45;;;;;;;231.30;98.70;;;;;;;1.44;90.31;98985.59;86470;1276;22435;-71
2022/11/25 08:36:47;;;;;;;237.20;104.80;;;;;;;1.45;90.38;98986.44;86339;1276;99697;-71
2022/11/25 08:38:51;;;;;;;252.80;98.20;;;;;;;1.46;90.37;98986.77;86403;1278;22607;-72
2022/11/25 08:40:52;;;;;;;246.90;101.20;;;;;;;1.47;90.62;98986.93;86211;1279;22806;-73
2022/11/25 08:42:53;;;;;;;242.40;101.10;;;;;;;1.48;90.59;98989.17;86269;1279;100348;-73
2022/11/25 08:44:55;;;;;;;240.00;106.40;;;;;;;1.49;90.61;98987.60;86581;1284;22483;-72
2022/11/25 08:46:56;;;;;;;248.80;101.60;;;;;;;1.49;90.28;98985.17;86349;1283;22531;-72
2022/11/25 08:48:57;;;;;;;230.60;100.70;;;;;;;1.51;89.95;98994.33;86162;1286;98390;-73
2022/11/25 08:50:58;;;;;;;247.80;108.70;;;;;;;1.51;90.01;98991.21;86290;1279;22492;-71
2022/11/25 08:53:00;;;;;;;270.90;112.60;;;;;;;1.50;90.20;98989.48;86427;1277;22573;-72
2022/11/25 08:55:01;;;;;;;278.80;117.10;;;;;;;1.49;90.36;98994.70;86197;1279;99345;-73
2022/11/25 08:57:02;;;;;;;277.40;117.90;;;;;;;1.48;90.04;98994.02;86443;1277;24354;-71
2022/11/25 08:59:03;;;;;;;;;;;;;;;1.46;90.20;98992.48;86239;1277;25363;-72
2022/11/25 09:01:06;;;;;;;275.80;115.80;;;;;;;1.45;90.29;98993.70;86331;1277;85110;-71
2022/11/25 09:03:08;;;;;;;287.90;115.10;;;;;;;1.44;90.28;98994.92;86195;1284;22482;-71
2022/11/25 09:05:11;;;;;;;283.30;116.40;;;;;;;1.44;90.17;98997.70;86470;1276;22716;-71
2022/11/25 09:07:13;;;;;;;285.30;122.30;;;;;;;1.44;90.09;99001.16;86409;1278;99425;-71
2022/11/25 09:09:15;;;;;;;290.40;122.90;;;;;;;1.46;90.20;98996.98;86434;1280;22662;-72
2022/11/25 09:11:16;;;;;;;284.40;117.70;;;;;;;1.47;90.23;98998.70;86723;1287;22504;-71
2022/11/25 09:13:18;;;;;;;268.10;110.60;;;;;;;1.47;90.23;98999.56;86075;1280;99436;-71
2022/11/25 09:15:18;;;;;;;293.30;111.10;;;;;;;1.47;90.30;99001.98;86157;1274;22591;-71
2022/11/25 09:17:19;;;;;;;277.70;115.90;;;;;;;1.48;90.29;99003.02;86036;1276;24536;-71
2022/11/25 09:19:20;;;;;;;278.90;112.40;;;;;;;1.50;90.23;99001.79;85901;1280;99849;-73
2022/11/25 09:21:23;;;;;;;259.30;112.00;;;;;;;1.51;90.38;99000.91;86065;1284;22498;-72
2022/11/25 09:23:24;;;;;;;270.80;110.00;;;;;;;1.51;90.12;99003.85;86100;1279;22535;-71
2022/11/25 09:25:26;;;;;;;331.50;117.40;;;;;;;1.51;90.29;99004.89;85994;1277;99537;-72
2022/11/25 09:27:27;;;;;;;296.90;108.90;;;;;;;1.54;90.33;99003.64;85992;1287;23087;-72
2022/11/25 09:29:29;;;;;;;280.10;108.90;;;;;;;1.57;90.35;99003.61;86049;1280;24297;-71